Latest Weather Observations for Horsley Park

IDN60801

Issued at 8:35 pm EDT Wednesday 22 October 2014 (issued every 30 minutes, with the page automatically refreshed every 10 minutes)

About weather observations | Map of weather stations | Latest weather observations for NSW | Other Formats
Station Details ID: 067119 Name: HORSLEY PARK EQUESTRIAN CENTRE AWS Lat: -33.85 Lon: 150.86 Height: 100.0 m
Data from the previous 72 hours. | See also: Recent months at Horsley Park
Date/Time
EDT
Temp
°C
App
Temp
°C
Dew
Point
Rel
Hum
%
Delta-T
°C
Wind Press
QNH
hPa
Press
MSL
hPa
Rain
since 9 am
mm
Dir
 
Spd
km/h
Gust
km/h
Spd
kts
Gust
kts
22/08:30pm 17.4 16.7 11.9 70 3.0 E 7 11 4 6 - - 0.0
22/08:00pm 17.8 16.7 12.0 69 3.2 E 9 13 5 7 - - 0.0
22/07:30pm 18.7 17.6 12.0 65 3.7 E 9 13 5 7 - - 0.0
22/07:00pm 19.7 18.2 12.0 61 4.3 E 11 17 6 9 - - 0.0
22/06:30pm 21.2 19.4 12.1 56 5.1 ENE 13 19 7 10 - - 0.0
22/06:00pm 22.4 21.1 12.4 53 5.7 NE 11 17 6 9 - - 0.0
22/05:30pm 23.1 21.3 12.1 50 6.3 NE 13 19 7 10 - - 0.0
22/05:00pm 24.7 24.0 10.2 40 8.0 N 4 11 2 6 - - 0.0
22/04:30pm 24.5 23.7 11.1 43 7.5 NNE 6 15 3 8 - - 0.0
22/04:00pm 24.2 23.1 10.1 41 7.8 NE 6 13 3 7 - - 0.0
22/03:30pm 23.8 22.7 10.8 44 7.3 ENE 7 11 4 6 - - 0.0
22/03:00pm 23.1 21.5 10.2 44 7.1 NNE 9 15 5 8 - - 0.0
22/02:30pm 22.6 20.5 9.7 44 7.0 NE 11 17 6 9 - - 0.0
22/02:00pm 22.2 19.6 9.4 44 6.9 N 13 24 7 13 - - 0.0
22/01:30pm 21.8 19.8 10.3 48 6.3 N 11 22 6 12 - - 0.0
22/01:00pm 21.0 18.4 9.3 47 6.3 N 13 24 7 13 - - 0.0
22/12:30pm 20.6 18.2 10.1 51 5.7 N 13 22 7 12 - - 0.0
22/12:00pm 20.3 18.1 9.5 50 5.8 N 11 22 6 12 - - 0.0
22/11:30am 19.6 17.0 9.2 51 5.5 NNE 13 19 7 10 - - 0.0
22/11:00am 18.8 15.0 9.0 53 5.1 N 19 28 10 15 - - 0.0
22/10:30am 18.5 15.0 8.7 53 5.1 NNE 17 28 9 15 - - 0.0
22/10:00am 17.9 14.8 9.0 56 4.6 N 15 26 8 14 - - 0.0
22/09:30am 17.8 15.5 8.9 56 4.6 NNE 11 19 6 10 - - 0.0
22/09:00am 17.0 15.3 8.2 56 4.5 NNW 7 13 4 7 - - 0.2
22/08:30am 16.1 14.6 8.3 60 4.0 NNW 6 11 3 6 - - 0.2
22/08:00am 15.7 14.3 8.9 64 3.5 N 6 11 3 6 - - 0.2
22/07:30am 14.3 14.2 9.5 73 2.5 CALM 0 0 0 0 - - 0.2
22/07:00am 12.9 12.8 9.5 80 1.7 CALM 0 0 0 0 - - 0.2
22/06:30am 13.2 13.2 9.8 80 1.8 CALM 0 0 0 0 - - 0.2
22/06:00am 13.5 13.1 9.7 78 2.0 NNW 2 6 1 3 - - 0.2
22/05:30am 13.5 12.2 9.9 79 1.9 NW 7 11 4 6 - - 0.2
22/05:00am 13.1 12.0 10.1 82 1.6 NE 6 7 3 4 - - 0.2
22/04:30am 12.4 12.5 10.3 87 1.1 CALM 0 0 0 0 - - 0.2
22/04:00am 12.6 12.7 10.0 84 1.3 CALM 0 0 0 0 - - 0.2
22/03:30am 13.0 13.1 10.0 82 1.6 CALM 0 0 0 0 - - 0.2
22/03:00am 13.1 13.2 10.1 82 1.6 CALM 0 0 0 0 - - 0.2
22/02:30am 13.1 13.1 9.9 81 1.7 CALM 0 0 0 0 - - 0.2
22/02:00am 13.2 13.1 9.6 79 1.8 CALM 0 0 0 0 - - 0.2
22/01:30am 13.5 13.5 9.7 78 2.0 CALM 0 0 0 0 - - 0.2
22/01:00am 13.4 13.4 9.8 79 1.9 CALM 0 0 0 0 - - 0.2
22/12:30am 13.9 13.8 9.5 75 2.3 CALM 0 0 0 0 - - 0.2
22/12:00am 14.3 14.2 9.3 72 2.6 NNE 0 0 0 0 - - 0.0
 
Date/Time
EDT
Temp
°C
App
Temp
°C
Dew
Point
Rel
Hum
%
Delta-T
°C
Wind Press
QNH
hPa
Press
MSL
hPa
Rain
since 9 am
mm
Dir
 
Spd
km/h
Gust
km/h
Spd
kts
Gust
kts
21/11:30pm 14.6 14.3 8.8 68 3.0 CALM 0 2 0 1 - - 0.0
21/11:00pm 14.7 13.4 9.1 69 2.9 ENE 6 9 3 5 - - 0.0
21/10:30pm 14.8 13.3 9.0 68 3.0 ENE 7 11 4 6 - - 0.0
21/10:00pm 14.7 13.4 9.3 70 2.8 ENE 6 9 3 5 - - 0.0
21/09:30pm 14.7 13.2 9.3 70 2.8 ENE 7 11 4 6 - - 0.0
21/09:00pm 14.9 13.4 9.3 69 2.9 ENE 7 13 4 7 - - 0.0
21/08:30pm 14.9 13.1 9.3 69 2.9 ENE 9 13 5 7 - - 0.0
21/08:00pm 15.3 13.4 9.0 66 3.2 ENE 9 15 5 8 - - 0.0
21/07:30pm 15.5 13.5 8.5 63 3.6 ENE 9 13 5 7 - - 0.0
21/07:00pm 15.6 13.5 8.4 62 3.7 ENE 9 15 5 8 - - 0.0
21/06:30pm 15.8 13.8 8.5 62 3.7 ENE 9 17 5 9 - - 0.0
21/06:00pm 16.1 14.0 8.1 59 4.1 ENE 9 17 5 9 - - 0.0
21/05:30pm 16.4 14.3 8.1 58 4.2 E 9 13 5 7 - - 0.0
21/05:00pm 16.6 14.5 8.1 57 4.3 ESE 9 19 5 10 - - 0.0
21/04:30pm 16.9 14.3 7.8 55 4.6 E 11 17 6 9 - - 0.0
21/04:00pm 17.4 15.4 8.5 56 4.6 ESE 9 19 5 10 - - 0.0
21/03:30pm 17.1 15.3 8.0 55 4.6 E 7 19 4 10 - - 0.0
21/03:00pm 17.0 15.1 7.6 54 4.7 E 7 15 4 8 - - 0.0
21/02:30pm 17.1 15.5 8.0 55 4.6 E 6 11 3 6 - - 0.0
21/02:00pm 16.7 14.8 7.6 55 4.6 SE 7 11 4 6 - - 0.0
21/01:30pm 16.7 15.1 7.9 56 4.5 E 6 7 3 4 - - 0.0
21/01:00pm 16.4 14.5 7.6 56 4.4 ENE 7 13 4 7 - - 0.0
21/12:30pm 16.3 14.7 8.8 61 3.9 ESE 7 13 4 7 - - 0.0
21/12:00pm 16.1 14.6 8.6 61 3.8 E 6 11 3 6 - - 0.0
21/11:30am 16.1 14.6 8.6 61 3.8 ENE 6 7 3 4 - - 0.0
21/11:00am 15.8 15.3 9.2 65 3.4 NE 2 4 1 2 - - 0.0
21/10:30am 16.1 14.8 9.3 64 3.5 ESE 6 9 3 5 - - 0.0
21/10:00am 16.2 16.4 10.5 69 3.0 CALM 0 4 0 2 - - 0.0
21/09:30am 15.4 15.2 10.6 73 2.5 S 2 6 1 3 - - 0.0
21/09:00am 14.9 14.3 10.5 75 2.3 SW 4 7 2 4 - - 2.6
21/08:30am 14.4 14.0 11.0 80 1.8 SW 4 6 2 3 - - 2.6
21/08:00am 14.0 14.2 11.7 86 1.2 SW 2 4 1 2 - - 2.6
21/07:30am 13.2 12.9 11.6 90 0.9 SSW 4 6 2 3 - - 2.6
21/07:00am 12.9 12.7 11.8 93 0.6 SSW 4 7 2 4 - - 2.6
21/06:30am 12.5 12.1 11.2 92 0.7 SW 4 6 2 3 - - 2.6
21/06:00am 12.5 12.1 11.2 92 0.7 SSW 4 6 2 3 - - 2.6
21/05:30am 12.6 11.9 11.5 93 0.6 S 6 11 3 6 - - 2.6
21/05:00am 12.6 12.0 11.8 95 0.4 SSW 6 7 3 4 - - 2.6
21/04:30am 12.7 12.9 11.9 95 0.4 S 2 4 1 2 - - 2.6
21/04:00am 12.7 12.5 11.9 95 0.4 SSE 4 6 2 3 - - 2.6
21/03:30am 12.6 12.0 11.8 95 0.4 SE 6 11 3 6 - - 2.6
21/03:00am 12.7 11.6 11.8 94 0.5 SSE 9 17 5 9 - - 2.0
21/02:30am 13.1 12.6 12.2 94 0.5 S 6 9 3 5 - - 0.2
21/02:00am 13.3 14.1 12.4 94 0.5 CALM 0 0 0 0 - - 0.2
21/01:30am 13.2 13.9 12.3 94 0.5 CALM 0 0 0 0 - - 0.2
21/01:00am 13.2 13.1 12.1 93 0.6 NNE 4 7 2 4 - - 0.2
21/12:30am 13.4 12.8 11.8 90 0.9 ENE 6 9 3 5 - - 0.0
21/12:00am 13.9 14.1 11.9 88 1.1 W 2 6 1 3 - - 0.0
 
Date/Time
EDT
Temp
°C
App
Temp
°C
Dew
Point
Rel
Hum
%
Delta-T
°C
Wind Press
QNH
hPa
Press
MSL
hPa
Rain
since 9 am
mm
Dir
 
Spd
km/h
Gust
km/h
Spd
kts
Gust
kts
20/11:30pm 14.1 14.3 12.0 87 1.1 NW 2 4 1 2 - - 0.0
20/11:00pm 14.1 14.0 12.0 87 1.1 SSW 4 6 2 3 - - 0.0
20/10:30pm 13.8 14.0 12.0 89 1.0 S 2 6 1 3 - - 0.0
20/10:00pm 13.7 13.5 11.8 88 1.0 ESE 4 9 2 5 - - 0.0
20/09:30pm 14.1 13.0 11.8 86 1.2 ESE 9 15 5 8 - - 0.0
20/09:00pm 15.4 14.1 9.1 66 3.2 SSE 6 15 3 8 - - 0.0
20/08:30pm 15.3 13.9 9.0 66 3.2 S 6 7 3 4 - - 0.0
20/08:00pm 15.4 14.1 9.1 66 3.2 S 6 7 3 4 - - 0.0
20/07:30pm 15.4 13.2 9.5 68 3.1 SSE 11 19 6 10 - - 0.0
20/07:00pm 15.4 12.9 9.7 69 3.0 SSE 13 24 7 13 - - 0.0
20/06:30pm 15.9 13.3 9.3 65 3.4 SSE 13 24 7 13 - - 0.0
20/06:00pm 16.0 13.0 9.2 64 3.5 SSE 15 26 8 14 - - 0.0
20/05:30pm 16.5 13.5 9.2 62 3.8 S 15 24 8 13 - - 0.0
20/05:00pm 16.4 13.1 9.6 64 3.6 SSE 17 26 9 14 - - 0.0
20/04:30pm 16.6 13.8 10.0 65 3.5 SSE 15 24 8 13 - - 0.0
20/04:00pm 16.6 13.5 10.2 66 3.4 SSE 17 30 9 16 - - 0.0
20/03:30pm 17.1 14.3 11.2 68 3.2 SSE 17 26 9 14 - - 0.0
20/03:00pm 16.5 13.0 10.8 69 3.1 SSE 20 30 11 16 - - 0.0
20/02:30pm 17.1 13.8 10.9 67 3.3 SSE 19 28 10 15 - - 0.0
20/02:00pm 17.8 15.1 11.8 68 3.3 SSE 17 30 9 16 - - 0.0
20/01:30pm 17.9 14.6 11.0 64 3.7 SSE 19 28 10 15 - - 0.0
20/01:00pm 18.7 15.7 10.8 60 4.3 SSE 17 28 9 15 - - 0.0
20/12:30pm 19.0 15.8 9.8 55 4.9 S 17 26 9 14 - - 0.0
20/12:00pm 17.8 14.2 9.7 59 4.3 S 19 32 10 17 - - 0.0
20/11:30am 17.3 13.7 9.7 61 4.0 S 19 30 10 16 - - 0.0
20/11:00am 17.4 13.9 10.1 62 3.9 S 19 32 10 17 - - 0.0
20/10:30am 18.3 15.2 10.2 59 4.3 S 17 30 9 16 - - 0.0
20/10:00am 17.8 15.1 10.4 62 4.0 S 15 24 8 13 - - 0.0
20/09:30am 17.5 14.0 10.1 62 3.9 S 19 32 10 17 - - 0.0
20/09:00am 17.7 14.6 10.3 62 4.0 S 17 30 9 16 - - 0.0
20/08:30am 17.7 14.2 10.3 62 4.0 SSE 19 30 10 16 - - 0.0
20/08:00am 17.6 14.1 10.9 65 3.6 S 20 39 11 21 - - 0.0
20/07:30am 17.1 13.9 11.4 69 3.1 S 19 35 10 19 - - 0.0
20/07:00am 16.6 13.6 12.0 74 2.5 S 19 35 10 19 - - 0.0
20/06:30am 16.6 13.7 12.9 79 2.1 S 20 33 11 18 - - 0.0
20/06:00am 15.0 13.3 12.3 84 1.5 SSE 13 20 7 11 - - 0.0
20/05:30am 14.2 14.8 11.9 86 1.2 CALM 0 0 0 0 - - 0.0
20/05:00am 14.2 14.9 12.1 87 1.1 CALM 0 0 0 0 - - 0.0
20/04:30am 14.3 15.1 12.7 90 0.9 CALM 0 0 0 0 - - 0.0
20/04:00am 13.7 14.3 11.8 88 1.0 CALM 0 0 0 0 - - 0.0
20/03:30am 13.9 14.5 11.9 88 1.1 CALM 0 0 0 0 - - 0.0
20/03:00am 14.7 15.5 12.4 86 1.3 CALM 0 0 0 0 - - 0.0
20/02:30am 14.3 14.9 12.0 86 1.2 CALM 0 0 0 0 - - 0.0
20/02:00am 14.6 15.3 12.1 85 1.4 CALM 0 0 0 0 - - 0.0
20/01:30am 14.7 15.3 12.0 84 1.5 CALM 0 0 0 0 - - 0.0
20/01:00am 15.0 15.6 12.0 82 1.6 CALM 0 0 0 0 - - 0.0
20/12:30am 15.4 16.1 12.2 81 1.8 CALM 0 0 0 0 - - 0.0
20/12:00am 15.7 16.4 12.1 79 2.0 CALM 0 0 0 0 - - 0.0
 
Date/Time
EDT
Temp
°C
App
Temp
°C
Dew
Point
Rel
Hum
%
Delta-T
°C
Wind Press
QNH
hPa
Press
MSL
hPa
Rain
since 9 am
mm
Dir
 
Spd
km/h
Gust
km/h
Spd
kts
Gust
kts
19/11:30pm 15.7 16.4 12.1 79 2.0 CALM 0 0 0 0 - - 0.0
19/11:00pm 16.6 17.4 12.4 76 2.3 CALM 0 0 0 0 - - 0.0
19/10:30pm 17.0 17.7 12.3 74 2.6 CALM 0 0 0 0 - - 0.0
19/10:00pm 16.4 17.0 12.0 75 2.4 CALM 0 0 0 0 - - 0.0
19/09:30pm 17.2 17.9 12.1 72 2.8 CALM 0 0 0 0 - - 0.0
19/09:00pm 17.6 18.3 12.1 70 3.0 CALM 0 0 0 0 - - 0.0

Other Formats:

Comma delimited format used in spreadsheet applications
http://www.bom.gov.au/fwo/IDN60801/IDN60801.94760.axf

JavaScript Object Notation format (JSON) in row-major order
http://www.bom.gov.au/fwo/IDN60801/IDN60801.94760.json